sensor_id;sensor_type;location;lat;lon;timestamp;temperature;humidity
11055;DHT22;5580;50.106;8.702;2022-11-18T00:00:50;11.40;99.90
11055;DHT22;5580;50.106;8.702;2022-11-18T00:03:17;11.40;99.90
11055;DHT22;5580;50.106;8.702;2022-11-18T00:05:51;11.40;99.90
11055;DHT22;5580;50.106;8.702;2022-11-18T00:08:17;11.40;99.90
11055;DHT22;5580;50.106;8.702;2022-11-18T00:10:42;11.30;99.90
11055;DHT22;5580;50.106;8.702;2022-11-18T00:13:11;11.30;99.90
11055;DHT22;5580;50.106;8.702;2022-11-18T00:16:03;11.20;99.90
11055;DHT22;5580;50.106;8.702;2022-11-18T00:18:30;11.10;99.90
11055;DHT22;5580;50.106;8.702;2022-11-18T00:21:00;11.00;99.90
11055;DHT22;5580;50.106;8.702;2022-11-18T00:23:26;11.00;99.90
11055;DHT22;5580;50.106;8.702;2022-11-18T00:25:51;10.90;99.90
11055;DHT22;5580;50.106;8.702;2022-11-18T00:28:17;10.90;99.90
11055;DHT22;5580;50.106;8.702;2022-11-18T00:30:42;10.90;99.90
11055;DHT22;5580;50.106;8.702;2022-11-18T00:33:08;11.00;99.90
11055;DHT22;5580;50.106;8.702;2022-11-18T00:35:34;11.00;99.90
11055;DHT22;5580;50.106;8.702;2022-11-18T00:37:59;11.00;99.90
11055;DHT22;5580;50.106;8.702;2022-11-18T00:40:25;11.10;99.90
11055;DHT22;5580;50.106;8.702;2022-11-18T00:42:50;11.20;99.90
11055;DHT22;5580;50.106;8.702;2022-11-18T00:45:17;11.20;99.90
11055;DHT22;5580;50.106;8.702;2022-11-18T00:47:43;11.20;99.90
11055;DHT22;5580;50.106;8.702;2022-11-18T00:50:11;11.20;99.90
11055;DHT22;5580;50.106;8.702;2022-11-18T00:52:37;11.10;99.90
11055;DHT22;5580;50.106;8.702;2022-11-18T00:55:03;11.10;99.90
11055;DHT22;5580;50.106;8.702;2022-11-18T00:57:29;11.10;99.90
11055;DHT22;5580;50.106;8.702;2022-11-18T00:59:54;11.10;99.90
11055;DHT22;5580;50.106;8.702;2022-11-18T01:02:20;11.10;99.90
11055;DHT22;5580;50.106;8.702;2022-11-18T01:04:46;11.10;99.90
11055;DHT22;5580;50.106;8.702;2022-11-18T01:07:11;11.10;99.90
11055;DHT22;5580;50.106;8.702;2022-11-18T01:09:37;11.10;99.90
11055;DHT22;5580;50.106;8.702;2022-11-18T01:12:03;11.20;99.90
11055;DHT22;5580;50.106;8.702;2022-11-18T01:14:47;11.20;99.90
11055;DHT22;5580;50.106;8.702;2022-11-18T01:17:13;11.30;99.90
11055;DHT22;5580;50.106;8.702;2022-11-18T01:19:38;11.30;99.90
11055;DHT22;5580;50.106;8.702;2022-11-18T01:22:04;11.30;99.90
11055;DHT22;5580;50.106;8.702;2022-11-18T01:24:30;11.30;99.90
11055;DHT22;5580;50.106;8.702;2022-11-18T01:26:56;11.30;99.90
11055;DHT22;5580;50.106;8.702;2022-11-18T01:29:22;11.30;99.90
11055;DHT22;5580;50.106;8.702;2022-11-18T01:31:47;11.30;99.90
11055;DHT22;5580;50.106;8.702;2022-11-18T01:34:13;11.30;99.90
11055;DHT22;5580;50.106;8.702;2022-11-18T01:36:39;11.40;99.90
11055;DHT22;5580;50.106;8.702;2022-11-18T01:39:05;11.40;99.90
11055;DHT22;5580;50.106;8.702;2022-11-18T01:41:30;11.40;99.90
11055;DHT22;5580;50.106;8.702;2022-11-18T01:44:02;11.40;99.90
11055;DHT22;5580;50.106;8.702;2022-11-18T01:46:31;11.40;99.90
11055;DHT22;5580;50.106;8.702;2022-11-18T01:49:04;11.40;99.90
11055;DHT22;5580;50.106;8.702;2022-11-18T01:51:47;11.40;99.90
11055;DHT22;5580;50.106;8.702;2022-11-18T01:54:24;11.40;99.90
11055;DHT22;5580;50.106;8.702;2022-11-18T01:56:54;11.50;99.90
11055;DHT22;5580;50.106;8.702;2022-11-18T01:59:24;11.40;99.90
11055;DHT22;5580;50.106;8.702;2022-11-18T02:01:50;11.40;99.90
11055;DHT22;5580;50.106;8.702;2022-11-18T02:04:16;11.40;99.90
11055;DHT22;5580;50.106;8.702;2022-11-18T02:06:43;11.40;99.90
11055;DHT22;5580;50.106;8.702;2022-11-18T02:09:10;11.50;99.90
11055;DHT22;5580;50.106;8.702;2022-11-18T02:11:35;11.50;99.90
11055;DHT22;5580;50.106;8.702;2022-11-18T02:14:25;11.50;99.90
11055;DHT22;5580;50.106;8.702;2022-11-18T02:22:40;11.50;99.90
11055;DHT22;5580;50.106;8.702;2022-11-18T02:30:20;11.50;99.90
11055;DHT22;5580;50.106;8.702;2022-11-18T02:32:53;11.50;99.90
11055;DHT22;5580;50.106;8.702;2022-11-18T02:35:27;11.50;99.90
11055;DHT22;5580;50.106;8.702;2022-11-18T02:37:59;11.50;99.90
11055;DHT22;5580;50.106;8.702;2022-11-18T02:43:17;11.50;99.90
11055;DHT22;5580;50.106;8.702;2022-11-18T02:45:44;11.50;99.90
11055;DHT22;5580;50.106;8.702;2022-11-18T02:48:12;11.50;99.90
11055;DHT22;5580;50.106;8.702;2022-11-18T02:50:41;11.50;99.90
11055;DHT22;5580;50.106;8.702;2022-11-18T02:53:12;11.50;99.90
11055;DHT22;5580;50.106;8.702;2022-11-18T02:55:39;11.50;99.90
11055;DHT22;5580;50.106;8.702;2022-11-18T02:58:06;11.50;99.90
11055;DHT22;5580;50.106;8.702;2022-11-18T03:00:33;11.50;99.90
11055;DHT22;5580;50.106;8.702;2022-11-18T03:03:23;11.50;99.90
11055;DHT22;5580;50.106;8.702;2022-11-18T03:05:58;11.50;99.90
11055;DHT22;5580;50.106;8.702;2022-11-18T03:08:31;11.50;99.90
11055;DHT22;5580;50.106;8.702;2022-11-18T03:11:17;11.50;99.90
11055;DHT22;5580;50.106;8.702;2022-11-18T03:16:32;11.50;99.90
11055;DHT22;5580;50.106;8.702;2022-11-18T03:19:14;11.40;99.90
11055;DHT22;5580;50.106;8.702;2022-11-18T03:21:46;11.50;99.90
11055;DHT22;5580;50.106;8.702;2022-11-18T03:24:29;11.40;99.90
11055;DHT22;5580;50.106;8.702;2022-11-18T03:27:06;11.50;99.90
11055;DHT22;5580;50.106;8.702;2022-11-18T03:29:38;11.40;99.90
11055;DHT22;5580;50.106;8.702;2022-11-18T03:32:09;11.40;99.90
11055;DHT22;5580;50.106;8.702;2022-11-18T03:34:40;11.40;99.90
11055;DHT22;5580;50.106;8.702;2022-11-18T03:37:09;11.40;99.90
11055;DHT22;5580;50.106;8.702;2022-11-18T03:39:40;11.40;99.90
11055;DHT22;5580;50.106;8.702;2022-11-18T03:42:18;11.40;99.90
11055;DHT22;5580;50.106;8.702;2022-11-18T03:44:52;11.40;99.90
11055;DHT22;5580;50.106;8.702;2022-11-18T03:47:27;11.40;99.90
11055;DHT22;5580;50.106;8.702;2022-11-18T03:50:07;11.30;99.90
11055;DHT22;5580;50.106;8.702;2022-11-18T03:52:35;11.20;99.90
11055;DHT22;5580;50.106;8.702;2022-11-18T03:55:05;11.20;99.90
11055;DHT22;5580;50.106;8.702;2022-11-18T04:00:16;11.20;99.90
11055;DHT22;5580;50.106;8.702;2022-11-18T04:02:45;11.20;99.90
11055;DHT22;5580;50.106;8.702;2022-11-18T04:05:12;11.20;99.90
11055;DHT22;5580;50.106;8.702;2022-11-18T04:10:17;11.30;99.90
11055;DHT22;5580;50.106;8.702;2022-11-18T04:15:15;11.30;99.90
11055;DHT22;5580;50.106;8.702;2022-11-18T04:17:42;11.30;99.90
11055;DHT22;5580;50.106;8.702;2022-11-18T04:20:19;11.30;99.90
11055;DHT22;5580;50.106;8.702;2022-11-18T04:22:45;11.30;99.90
11055;DHT22;5580;50.106;8.702;2022-11-18T04:25:11;11.40;99.90
11055;DHT22;5580;50.106;8.702;2022-11-18T04:27:37;11.40;99.90
11055;DHT22;5580;50.106;8.702;2022-11-18T04:30:04;11.40;99.90
11055;DHT22;5580;50.106;8.702;2022-11-18T04:32:30;11.40;99.90
11055;DHT22;5580;50.106;8.702;2022-11-18T04:34:55;11.40;99.90
11055;DHT22;5580;50.106;8.702;2022-11-18T04:37:21;11.40;99.90
11055;DHT22;5580;50.106;8.702;2022-11-18T04:39:47;11.40;99.90
11055;DHT22;5580;50.106;8.702;2022-11-18T04:42:12;11.40;99.90
11055;DHT22;5580;50.106;8.702;2022-11-18T04:44:38;11.40;99.90
11055;DHT22;5580;50.106;8.702;2022-11-18T04:47:05;11.50;99.90
11055;DHT22;5580;50.106;8.702;2022-11-18T04:49:31;11.40;99.90
11055;DHT22;5580;50.106;8.702;2022-11-18T04:51:57;11.40;99.90
11055;DHT22;5580;50.106;8.702;2022-11-18T04:54:24;11.40;99.90
11055;DHT22;5580;50.106;8.702;2022-11-18T04:56:50;11.40;99.90
11055;DHT22;5580;50.106;8.702;2022-11-18T04:59:18;11.50;99.90
11055;DHT22;5580;50.106;8.702;2022-11-18T05:01:44;11.40;99.90
11055;DHT22;5580;50.106;8.702;2022-11-18T05:04:19;11.40;99.90
11055;DHT22;5580;50.106;8.702;2022-11-18T05:06:46;11.50;99.90
11055;DHT22;5580;50.106;8.702;2022-11-18T05:09:12;11.40;99.90
11055;DHT22;5580;50.106;8.702;2022-11-18T05:11:37;11.50;99.90
11055;DHT22;5580;50.106;8.702;2022-11-18T05:14:24;11.50;99.90
11055;DHT22;5580;50.106;8.702;2022-11-18T05:16:51;11.50;99.90
11055;DHT22;5580;50.106;8.702;2022-11-18T05:19:16;11.50;99.90
11055;DHT22;5580;50.106;8.702;2022-11-18T05:21:42;11.50;99.90
11055;DHT22;5580;50.106;8.702;2022-11-18T05:24:08;11.50;99.90
11055;DHT22;5580;50.106;8.702;2022-11-18T05:26:34;11.50;99.90
11055;DHT22;5580;50.106;8.702;2022-11-18T05:28:59;11.40;99.90
11055;DHT22;5580;50.106;8.702;2022-11-18T05:31:25;11.40;99.90
11055;DHT22;5580;50.106;8.702;2022-11-18T05:33:51;11.40;99.90
11055;DHT22;5580;50.106;8.702;2022-11-18T05:36:18;11.40;99.90
11055;DHT22;5580;50.106;8.702;2022-11-18T05:38:44;11.50;99.90
11055;DHT22;5580;50.106;8.702;2022-11-18T05:41:10;11.40;99.90
11055;DHT22;5580;50.106;8.702;2022-11-18T05:43:56;11.40;99.90
11055;DHT22;5580;50.106;8.702;2022-11-18T05:46:21;11.40;99.90
11055;DHT22;5580;50.106;8.702;2022-11-18T05:48:47;11.40;99.90
11055;DHT22;5580;50.106;8.702;2022-11-18T05:51:12;11.40;99.90
11055;DHT22;5580;50.106;8.702;2022-11-18T05:53:38;11.40;99.90
11055;DHT22;5580;50.106;8.702;2022-11-18T05:58:39;11.40;99.90
11055;DHT22;5580;50.106;8.702;2022-11-18T06:01:06;11.40;99.90
11055;DHT22;5580;50.106;8.702;2022-11-18T06:03:35;11.30;99.90
11055;DHT22;5580;50.106;8.702;2022-11-18T06:06:04;11.30;99.90
11055;DHT22;5580;50.106;8.702;2022-11-18T06:08:36;11.30;99.90
11055;DHT22;5580;50.106;8.702;2022-11-18T06:11:02;11.30;99.90
11055;DHT22;5580;50.106;8.702;2022-11-18T06:13:35;11.20;99.90
11055;DHT22;5580;50.106;8.702;2022-11-18T06:16:02;11.20;99.90
11055;DHT22;5580;50.106;8.702;2022-11-18T06:18:29;11.20;99.90
11055;DHT22;5580;50.106;8.702;2022-11-18T06:21:02;11.20;99.90
11055;DHT22;5580;50.106;8.702;2022-11-18T06:23:30;11.20;99.90
11055;DHT22;5580;50.106;8.702;2022-11-18T06:25:58;11.20;99.90
11055;DHT22;5580;50.106;8.702;2022-11-18T06:28:24;11.20;99.90
11055;DHT22;5580;50.106;8.702;2022-11-18T06:30:51;11.30;99.90
11055;DHT22;5580;50.106;8.702;2022-11-18T06:33:16;11.20;99.90
11055;DHT22;5580;50.106;8.702;2022-11-18T06:35:43;11.30;99.90
11055;DHT22;5580;50.106;8.702;2022-11-18T06:38:09;11.20;99.90
11055;DHT22;5580;50.106;8.702;2022-11-18T06:40:34;11.20;99.90
11055;DHT22;5580;50.106;8.702;2022-11-18T06:43:08;11.20;99.90
11055;DHT22;5580;50.106;8.702;2022-11-18T06:45:57;11.20;99.90
11055;DHT22;5580;50.106;8.702;2022-11-18T06:48:41;11.20;99.90
11055;DHT22;5580;50.106;8.702;2022-11-18T06:51:07;11.20;99.90
11055;DHT22;5580;50.106;8.702;2022-11-18T06:53:33;11.20;99.90
11055;DHT22;5580;50.106;8.702;2022-11-18T06:56:03;11.20;99.90
11055;DHT22;5580;50.106;8.702;2022-11-18T06:58:29;11.20;99.90
11055;DHT22;5580;50.106;8.702;2022-11-18T07:00:54;11.30;99.90
11055;DHT22;5580;50.106;8.702;2022-11-18T07:03:20;11.30;99.90
11055;DHT22;5580;50.106;8.702;2022-11-18T07:05:46;11.30;99.90
11055;DHT22;5580;50.106;8.702;2022-11-18T07:08:11;11.30;99.90
11055;DHT22;5580;50.106;8.702;2022-11-18T07:10:37;11.30;99.90
11055;DHT22;5580;50.106;8.702;2022-11-18T07:13:02;11.30;99.90
11055;DHT22;5580;50.106;8.702;2022-11-18T07:15:28;11.30;99.90
11055;DHT22;5580;50.106;8.702;2022-11-18T07:17:54;11.30;99.90
11055;DHT22;5580;50.106;8.702;2022-11-18T07:20:19;11.30;99.90
11055;DHT22;5580;50.106;8.702;2022-11-18T07:22:45;11.30;99.90
11055;DHT22;5580;50.106;8.702;2022-11-18T07:25:10;11.30;99.90
11055;DHT22;5580;50.106;8.702;2022-11-18T07:27:36;11.20;99.90
11055;DHT22;5580;50.106;8.702;2022-11-18T07:30:01;11.30;99.90
11055;DHT22;5580;50.106;8.702;2022-11-18T07:32:27;11.30;99.90
11055;DHT22;5580;50.106;8.702;2022-11-18T07:34:53;11.30;99.90
11055;DHT22;5580;50.106;8.702;2022-11-18T07:37:18;11.30;99.90
11055;DHT22;5580;50.106;8.702;2022-11-18T07:39:44;11.20;99.90
11055;DHT22;5580;50.106;8.702;2022-11-18T07:42:09;11.30;99.90
11055;DHT22;5580;50.106;8.702;2022-11-18T07:44:35;11.20;99.90
11055;DHT22;5580;50.106;8.702;2022-11-18T07:47:00;11.20;99.90
11055;DHT22;5580;50.106;8.702;2022-11-18T07:49:26;11.20;99.90
11055;DHT22;5580;50.106;8.702;2022-11-18T07:51:52;11.20;99.90
11055;DHT22;5580;50.106;8.702;2022-11-18T07:54:18;11.20;99.90
11055;DHT22;5580;50.106;8.702;2022-11-18T07:56:44;11.20;99.90
11055;DHT22;5580;50.106;8.702;2022-11-18T07:59:10;11.30;99.90
11055;DHT22;5580;50.106;8.702;2022-11-18T08:01:35;11.20;99.90
11055;DHT22;5580;50.106;8.702;2022-11-18T08:04:10;11.20;99.90
11055;DHT22;5580;50.106;8.702;2022-11-18T08:06:36;11.30;99.90
11055;DHT22;5580;50.106;8.702;2022-11-18T08:09:04;11.30;99.90
11055;DHT22;5580;50.106;8.702;2022-11-18T08:11:33;11.30;99.90
11055;DHT22;5580;50.106;8.702;2022-11-18T08:13:58;11.30;99.90
11055;DHT22;5580;50.106;8.702;2022-11-18T08:16:25;11.30;99.90
11055;DHT22;5580;50.106;8.702;2022-11-18T08:18:51;11.30;99.90
11055;DHT22;5580;50.106;8.702;2022-11-18T08:21:19;11.20;99.90
11055;DHT22;5580;50.106;8.702;2022-11-18T08:23:50;11.30;99.90
11055;DHT22;5580;50.106;8.702;2022-11-18T08:26:15;11.30;99.90
11055;DHT22;5580;50.106;8.702;2022-11-18T08:28:42;11.30;99.90
11055;DHT22;5580;50.106;8.702;2022-11-18T08:31:13;11.30;99.90
11055;DHT22;5580;50.106;8.702;2022-11-18T08:33:39;11.30;99.90
11055;DHT22;5580;50.106;8.702;2022-11-18T08:36:16;11.30;99.90
11055;DHT22;5580;50.106;8.702;2022-11-18T08:38:43;11.30;99.90
11055;DHT22;5580;50.106;8.702;2022-11-18T08:41:14;11.30;99.90
11055;DHT22;5580;50.106;8.702;2022-11-18T08:43:40;11.40;99.90
11055;DHT22;5580;50.106;8.702;2022-11-18T08:46:06;11.40;99.90
11055;DHT22;5580;50.106;8.702;2022-11-18T08:48:31;11.30;99.90
11055;DHT22;5580;50.106;8.702;2022-11-18T08:50:58;11.30;99.90
11055;DHT22;5580;50.106;8.702;2022-11-18T08:53:24;11.30;99.90
11055;DHT22;5580;50.106;8.702;2022-11-18T08:55:56;11.30;99.90
11055;DHT22;5580;50.106;8.702;2022-11-18T08:58:22;11.30;99.90
11055;DHT22;5580;50.106;8.702;2022-11-18T09:00:48;11.30;99.90
11055;DHT22;5580;50.106;8.702;2022-11-18T09:03:13;11.30;99.90
11055;DHT22;5580;50.106;8.702;2022-11-18T09:05:39;11.30;99.90
11055;DHT22;5580;50.106;8.702;2022-11-18T09:08:05;11.30;99.90
11055;DHT22;5580;50.106;8.702;2022-11-18T09:10:30;11.30;99.90
11055;DHT22;5580;50.106;8.702;2022-11-18T09:12:57;11.30;99.90
11055;DHT22;5580;50.106;8.702;2022-11-18T09:15:22;11.30;99.90
11055;DHT22;5580;50.106;8.702;2022-11-18T09:17:48;11.30;99.90
11055;DHT22;5580;50.106;8.702;2022-11-18T09:20:15;11.20;99.90
11055;DHT22;5580;50.106;8.702;2022-11-18T09:22:41;11.20;99.90
11055;DHT22;5580;50.106;8.702;2022-11-18T09:25:07;11.20;99.90
11055;DHT22;5580;50.106;8.702;2022-11-18T09:27:33;11.10;99.90
11055;DHT22;5580;50.106;8.702;2022-11-18T09:29:58;11.10;99.90
11055;DHT22;5580;50.106;8.702;2022-11-18T09:32:24;11.10;99.90
11055;DHT22;5580;50.106;8.702;2022-11-18T09:34:49;11.10;99.90
11055;DHT22;5580;50.106;8.702;2022-11-18T09:37:15;11.10;99.90
11055;DHT22;5580;50.106;8.702;2022-11-18T09:39:41;11.00;99.90
11055;DHT22;5580;50.106;8.702;2022-11-18T09:42:22;11.00;99.90
11055;DHT22;5580;50.106;8.702;2022-11-18T09:45:16;11.10;99.90
11055;DHT22;5580;50.106;8.702;2022-11-18T09:47:44;11.10;99.90
11055;DHT22;5580;50.106;8.702;2022-11-18T09:50:20;11.00;99.90
11055;DHT22;5580;50.106;8.702;2022-11-18T09:55:33;11.00;99.90
11055;DHT22;5580;50.106;8.702;2022-11-18T09:57:59;10.90;99.90
11055;DHT22;5580;50.106;8.702;2022-11-18T10:00:28;10.90;99.90
11055;DHT22;5580;50.106;8.702;2022-11-18T10:05:54;10.90;99.90
11055;DHT22;5580;50.106;8.702;2022-11-18T10:08:35;10.90;99.90
11055;DHT22;5580;50.106;8.702;2022-11-18T10:24:48;10.90;99.90
11055;DHT22;5580;50.106;8.702;2022-11-18T10:27:14;11.00;99.90
11055;DHT22;5580;50.106;8.702;2022-11-18T10:29:41;11.00;99.90
11055;DHT22;5580;50.106;8.702;2022-11-18T10:32:13;11.00;99.90
11055;DHT22;5580;50.106;8.702;2022-11-18T10:34:54;10.90;99.90
11055;DHT22;5580;50.106;8.702;2022-11-18T10:37:30;10.90;99.90
11055;DHT22;5580;50.106;8.702;2022-11-18T10:39:58;10.90;99.90
11055;DHT22;5580;50.106;8.702;2022-11-18T10:42:28;11.00;99.90
11055;DHT22;5580;50.106;8.702;2022-11-18T10:44:55;11.00;99.90
11055;DHT22;5580;50.106;8.702;2022-11-18T10:47:38;11.00;99.90
11055;DHT22;5580;50.106;8.702;2022-11-18T10:52:55;11.10;99.90
11055;DHT22;5580;50.106;8.702;2022-11-18T10:55:24;11.10;99.90
11055;DHT22;5580;50.106;8.702;2022-11-18T10:57:53;11.10;99.90
11055;DHT22;5580;50.106;8.702;2022-11-18T11:00:44;11.10;99.90
11055;DHT22;5580;50.106;8.702;2022-11-18T11:03:31;11.20;99.90
11055;DHT22;5580;50.106;8.702;2022-11-18T11:08:54;11.20;99.90
11055;DHT22;5580;50.106;8.702;2022-11-18T11:22:13;11.30;99.90
11055;DHT22;5580;50.106;8.702;2022-11-18T11:24:40;11.30;99.90
11055;DHT22;5580;50.106;8.702;2022-11-18T11:41:34;11.50;99.90
11055;DHT22;5580;50.106;8.702;2022-11-18T11:47:06;11.50;99.90
11055;DHT22;5580;50.106;8.702;2022-11-18T11:49:59;11.50;99.90
11055;DHT22;5580;50.106;8.702;2022-11-18T11:52:30;11.50;99.90
11055;DHT22;5580;50.106;8.702;2022-11-18T11:55:15;11.60;99.90
11055;DHT22;5580;50.106;8.702;2022-11-18T12:00:15;11.70;99.90
11055;DHT22;5580;50.106;8.702;2022-11-18T12:08:03;11.70;99.90
11055;DHT22;5580;50.106;8.702;2022-11-18T12:11:02;11.60;99.90
11055;DHT22;5580;50.106;8.702;2022-11-18T12:18:54;11.70;99.90
11055;DHT22;5580;50.106;8.702;2022-11-18T12:32:35;11.90;99.90
11055;DHT22;5580;50.106;8.702;2022-11-18T12:40:35;12.00;99.90
11055;DHT22;5580;50.106;8.702;2022-11-18T12:43:02;12.00;99.90
11055;DHT22;5580;50.106;8.702;2022-11-18T12:45:53;12.00;99.90
11055;DHT22;5580;50.106;8.702;2022-11-18T12:48:39;12.00;99.90
11055;DHT22;5580;50.106;8.702;2022-11-18T12:53:45;12.00;99.90
11055;DHT22;5580;50.106;8.702;2022-11-18T12:58:46;12.00;99.90
11055;DHT22;5580;50.106;8.702;2022-11-18T13:01:16;12.00;99.90
11055;DHT22;5580;50.106;8.702;2022-11-18T13:03:42;12.00;99.90
11055;DHT22;5580;50.106;8.702;2022-11-18T13:06:22;12.00;99.90
11055;DHT22;5580;50.106;8.702;2022-11-18T13:09:00;12.00;99.90
11055;DHT22;5580;50.106;8.702;2022-11-18T13:11:28;12.00;99.90
11055;DHT22;5580;50.106;8.702;2022-11-18T13:14:34;12.00;99.90
11055;DHT22;5580;50.106;8.702;2022-11-18T13:17:35;11.90;99.90
11055;DHT22;5580;50.106;8.702;2022-11-18T13:22:54;11.80;99.90
11055;DHT22;5580;50.106;8.702;2022-11-18T13:25:39;11.80;99.90
11055;DHT22;5580;50.106;8.702;2022-11-18T13:31:21;11.80;99.90
11055;DHT22;5580;50.106;8.702;2022-11-18T13:33:49;11.90;99.90
11055;DHT22;5580;50.106;8.702;2022-11-18T13:38:57;11.90;99.90
11055;DHT22;5580;50.106;8.702;2022-11-18T13:41:24;11.90;99.90
11055;DHT22;5580;50.106;8.702;2022-11-18T13:44:20;11.90;99.90
11055;DHT22;5580;50.106;8.702;2022-11-18T13:46:58;11.90;99.90
11055;DHT22;5580;50.106;8.702;2022-11-18T13:52:21;11.80;99.90
11055;DHT22;5580;50.106;8.702;2022-11-18T13:54:50;11.80;99.90
11055;DHT22;5580;50.106;8.702;2022-11-18T13:57:17;11.80;99.90
11055;DHT22;5580;50.106;8.702;2022-11-18T13:59:45;11.80;99.90
11055;DHT22;5580;50.106;8.702;2022-11-18T14:02:13;11.80;99.90
11055;DHT22;5580;50.106;8.702;2022-11-18T14:04:48;11.90;99.90
11055;DHT22;5580;50.106;8.702;2022-11-18T14:10:05;12.00;99.90
11055;DHT22;5580;50.106;8.702;2022-11-18T14:12:33;12.00;99.90
11055;DHT22;5580;50.106;8.702;2022-11-18T14:15:33;12.00;99.90
11055;DHT22;5580;50.106;8.702;2022-11-18T14:18:00;12.10;99.90
11055;DHT22;5580;50.106;8.702;2022-11-18T14:20:28;12.10;99.90
11055;DHT22;5580;50.106;8.702;2022-11-18T14:22:59;12.10;99.90
11055;DHT22;5580;50.106;8.702;2022-11-18T14:25:31;12.10;99.90
11055;DHT22;5580;50.106;8.702;2022-11-18T14:28:20;12.10;99.90
11055;DHT22;5580;50.106;8.702;2022-11-18T14:34:44;12.20;99.90
11055;DHT22;5580;50.106;8.702;2022-11-18T14:36:51;12.20;99.90
11055;DHT22;5580;50.106;8.702;2022-11-18T14:39:29;12.10;99.90
11055;DHT22;5580;50.106;8.702;2022-11-18T14:41:55;12.20;99.90
11055;DHT22;5580;50.106;8.702;2022-11-18T14:44:23;12.20;99.90
11055;DHT22;5580;50.106;8.702;2022-11-18T14:46:58;12.20;99.90
11055;DHT22;5580;50.106;8.702;2022-11-18T14:49:25;12.20;99.90
11055;DHT22;5580;50.106;8.702;2022-11-18T14:51:52;12.20;99.90
11055;DHT22;5580;50.106;8.702;2022-11-18T14:54:21;12.20;99.90
11055;DHT22;5580;50.106;8.702;2022-11-18T14:56:48;12.20;99.90
11055;DHT22;5580;50.106;8.702;2022-11-18T14:59:15;12.20;99.90
11055;DHT22;5580;50.106;8.702;2022-11-18T15:01:42;12.20;99.90
11055;DHT22;5580;50.106;8.702;2022-11-18T15:04:09;12.20;99.90
11055;DHT22;5580;50.106;8.702;2022-11-18T15:06:35;12.20;99.90
11055;DHT22;5580;50.106;8.702;2022-11-18T15:09:01;12.20;99.90
11055;DHT22;5580;50.106;8.702;2022-11-18T15:11:27;12.20;99.90
11055;DHT22;5580;50.106;8.702;2022-11-18T15:13:53;12.20;99.90
11055;DHT22;5580;50.106;8.702;2022-11-18T15:16:23;12.20;99.90
11055;DHT22;5580;50.106;8.702;2022-11-18T15:18:52;12.20;99.90
11055;DHT22;5580;50.106;8.702;2022-11-18T15:21:18;12.20;99.90
11055;DHT22;5580;50.106;8.702;2022-11-18T15:23:44;12.20;99.90
11055;DHT22;5580;50.106;8.702;2022-11-18T15:28:45;12.10;99.90
11055;DHT22;5580;50.106;8.702;2022-11-18T15:31:11;12.10;99.90
11055;DHT22;5580;50.106;8.702;2022-11-18T15:33:37;12.10;99.90
11055;DHT22;5580;50.106;8.702;2022-11-18T15:36:02;12.10;99.90
11055;DHT22;5580;50.106;8.702;2022-11-18T15:38:28;12.10;99.90
11055;DHT22;5580;50.106;8.702;2022-11-18T15:40:54;12.10;99.90
11055;DHT22;5580;50.106;8.702;2022-11-18T15:43:21;12.10;99.90
11055;DHT22;5580;50.106;8.702;2022-11-18T15:45:46;12.10;99.90
11055;DHT22;5580;50.106;8.702;2022-11-18T15:48:12;12.10;99.90
11055;DHT22;5580;50.106;8.702;2022-11-18T15:50:37;12.10;99.90
11055;DHT22;5580;50.106;8.702;2022-11-18T15:53:03;12.00;99.90
11055;DHT22;5580;50.106;8.702;2022-11-18T15:55:29;12.00;99.90
11055;DHT22;5580;50.106;8.702;2022-11-18T15:57:54;12.00;99.90
11055;DHT22;5580;50.106;8.702;2022-11-18T16:00:20;12.00;99.90
11055;DHT22;5580;50.106;8.702;2022-11-18T16:02:45;11.90;99.90
11055;DHT22;5580;50.106;8.702;2022-11-18T16:05:11;11.90;99.90
11055;DHT22;5580;50.106;8.702;2022-11-18T16:07:36;11.90;99.90
11055;DHT22;5580;50.106;8.702;2022-11-18T16:10:02;11.90;99.90
11055;DHT22;5580;50.106;8.702;2022-11-18T16:12:46;11.90;99.90
11055;DHT22;5580;50.106;8.702;2022-11-18T16:15:13;11.80;99.90
11055;DHT22;5580;50.106;8.702;2022-11-18T16:17:57;11.90;99.90
11055;DHT22;5580;50.106;8.702;2022-11-18T16:20:26;11.80;99.90
11055;DHT22;5580;50.106;8.702;2022-11-18T16:22:52;11.80;99.90
11055;DHT22;5580;50.106;8.702;2022-11-18T16:25:20;11.80;99.90
11055;DHT22;5580;50.106;8.702;2022-11-18T16:27:45;11.80;99.90
11055;DHT22;5580;50.106;8.702;2022-11-18T16:30:12;11.80;99.90
11055;DHT22;5580;50.106;8.702;2022-11-18T16:32:58;11.80;99.90
11055;DHT22;5580;50.106;8.702;2022-11-18T16:35:24;11.80;99.90
11055;DHT22;5580;50.106;8.702;2022-11-18T16:37:50;11.80;99.90
11055;DHT22;5580;50.106;8.702;2022-11-18T16:40:16;11.80;99.90
11055;DHT22;5580;50.106;8.702;2022-11-18T16:42:42;11.80;99.90
11055;DHT22;5580;50.106;8.702;2022-11-18T16:45:08;11.80;99.90
11055;DHT22;5580;50.106;8.702;2022-11-18T16:47:34;11.80;99.90
11055;DHT22;5580;50.106;8.702;2022-11-18T16:49:59;11.70;99.90
11055;DHT22;5580;50.106;8.702;2022-11-18T16:52:25;11.70;99.90
11055;DHT22;5580;50.106;8.702;2022-11-18T16:54:51;11.70;99.90
11055;DHT22;5580;50.106;8.702;2022-11-18T16:57:17;11.70;99.90
11055;DHT22;5580;50.106;8.702;2022-11-18T16:59:43;11.70;99.90
11055;DHT22;5580;50.106;8.702;2022-11-18T17:02:11;11.60;99.90
11055;DHT22;5580;50.106;8.702;2022-11-18T17:04:37;11.60;99.90
11055;DHT22;5580;50.106;8.702;2022-11-18T17:07:04;11.60;99.90
11055;DHT22;5580;50.106;8.702;2022-11-18T17:09:29;11.60;99.90
11055;DHT22;5580;50.106;8.702;2022-11-18T17:11:55;11.60;99.90
11055;DHT22;5580;50.106;8.702;2022-11-18T17:14:22;11.60;99.90
11055;DHT22;5580;50.106;8.702;2022-11-18T17:16:49;11.60;99.90
11055;DHT22;5580;50.106;8.702;2022-11-18T17:19:17;11.50;99.90
11055;DHT22;5580;50.106;8.702;2022-11-18T17:21:43;11.50;99.90
11055;DHT22;5580;50.106;8.702;2022-11-18T17:24:12;11.50;99.90
11055;DHT22;5580;50.106;8.702;2022-11-18T17:26:37;11.50;99.90
11055;DHT22;5580;50.106;8.702;2022-11-18T17:29:03;11.50;99.90
11055;DHT22;5580;50.106;8.702;2022-11-18T17:31:29;11.50;99.90
11055;DHT22;5580;50.106;8.702;2022-11-18T17:33:55;11.50;99.90
11055;DHT22;5580;50.106;8.702;2022-11-18T17:36:22;11.50;99.90
11055;DHT22;5580;50.106;8.702;2022-11-18T17:38:50;11.50;99.90
11055;DHT22;5580;50.106;8.702;2022-11-18T17:41:18;11.50;99.90
11055;DHT22;5580;50.106;8.702;2022-11-18T17:44:05;11.50;99.90
11055;DHT22;5580;50.106;8.702;2022-11-18T17:46:32;11.40;99.90
11055;DHT22;5580;50.106;8.702;2022-11-18T17:48:59;11.40;99.90
11055;DHT22;5580;50.106;8.702;2022-11-18T17:51:26;11.40;99.90
11055;DHT22;5580;50.106;8.702;2022-11-18T17:53:53;11.40;99.90
11055;DHT22;5580;50.106;8.702;2022-11-18T17:56:20;11.40;99.90
11055;DHT22;5580;50.106;8.702;2022-11-18T17:58:46;11.40;99.90
11055;DHT22;5580;50.106;8.702;2022-11-18T18:01:14;11.40;99.90
11055;DHT22;5580;50.106;8.702;2022-11-18T18:03:41;11.50;99.90
11055;DHT22;5580;50.106;8.702;2022-11-18T18:06:08;11.50;99.90
11055;DHT22;5580;50.106;8.702;2022-11-18T18:08:34;11.50;99.90
11055;DHT22;5580;50.106;8.702;2022-11-18T18:11:04;11.50;99.90
11055;DHT22;5580;50.106;8.702;2022-11-18T18:13:30;11.50;99.90